首页
METAR-TAF:

METAR-TAF

机场 :

南宁吴圩国际机场

南宁, 中华人民共和国

纬度: 22-49N, 经度: 108-21E, 海拔: 73米

当前天气观测

该预报发布于1小时和4分钟前的07:00 UTC
风速2节,风向多变
温度 34°C
湿度 50%
气压 1009 hPa
能见度10公里或以上
散云层高于4000英尺

METAR: ZGNN 220700Z VRB01MPS 9999 SCT040 34/22 Q1009 NOSIG

时间: 16:04 (08:04 UTC)

预报

该预报发布于4小时和58分钟前的03:06 UTC
预报有效从22日的 06点(UTC)到 23日的 06点(UTC)
风速8节,风向
能见度10公里或以上
散云层高于3000英尺
短暂存在
从 22日的 06点(UTC)到 22日的 12点(UTC)
散云层高于1300英尺
少量云层高于2600英尺, 积雨云.
多云层高于3000英尺
雷暴, 雨

TAF: ZGNN 220306Z 2206/2306 17004MPS 9999 SCT030 TX35/2207Z TN25/2222Z TEMPO 2206/2212 TSRA SCT013 FEW026CB BKN030

超过4000个机场的气象观测和天气预报(METAR&TAF报告)。

可查询的气象台以黄色和红色小点在地图上表示。

将鼠标移到小点上方,可查看气象台名称。

然后点击查看天气观测和预报。

如需切换地图:点击带黑十字的绿色按钮放大地图;点击带横线的绿色按钮缩小地图;或者点击绿色箭头查看邻近地区的地图。


METAR-TAF: